createdAt,value
2023-02-14T00:00:54.043Z,26.28
2023-02-14T00:01:54.086Z,26.26
2023-02-14T00:02:54.205Z,26.27
2023-02-14T00:03:54.251Z,26.28
2023-02-14T00:04:54.413Z,26.30
2023-02-14T00:05:54.418Z,26.30
2023-02-14T00:06:54.512Z,26.28
2023-02-14T00:07:54.606Z,26.27
2023-02-14T00:08:54.688Z,26.28
2023-02-14T00:09:54.785Z,26.30
2023-02-14T00:10:54.861Z,26.27
2023-02-14T00:11:54.957Z,26.30
2023-02-14T00:12:55.027Z,26.27
2023-02-14T00:13:55.123Z,26.28
2023-02-14T00:14:55.235Z,26.25
2023-02-14T00:15:55.383Z,26.26
2023-02-14T00:16:55.428Z,26.27
2023-02-14T00:17:55.517Z,26.27
2023-02-14T00:18:55.603Z,26.26
2023-02-14T00:19:55.672Z,26.27
2023-02-14T00:20:55.837Z,26.24
2023-02-14T00:21:55.851Z,26.25
2023-02-14T00:22:55.938Z,26.27
2023-02-14T00:23:56.024Z,26.30
2023-02-14T00:24:56.110Z,26.26
2023-02-14T00:25:56.187Z,26.27
2023-02-14T00:26:56.272Z,26.28
2023-02-14T00:27:56.361Z,26.24
2023-02-14T00:28:56.452Z,26.24
2023-02-14T00:29:56.672Z,26.27
2023-02-14T00:30:56.773Z,26.25
2023-02-14T00:31:56.767Z,26.27
2023-02-14T00:32:56.794Z,26.22
2023-02-14T00:33:56.880Z,26.25
2023-02-14T00:34:56.964Z,26.27
2023-02-14T00:35:57.053Z,26.25
2023-02-14T00:36:57.145Z,26.24
2023-02-14T00:37:57.219Z,26.28
2023-02-14T00:38:57.321Z,26.25
2023-02-14T00:39:57.404Z,26.25
2023-02-14T00:40:57.875Z,26.26
2023-02-14T00:41:57.558Z,26.28
2023-02-14T00:42:57.642Z,26.24
2023-02-14T00:43:57.741Z,26.28
2023-02-14T00:44:57.815Z,26.28
2023-02-14T00:45:57.955Z,26.27
2023-02-14T00:46:57.989Z,26.26
2023-02-14T00:47:58.056Z,26.25
2023-02-14T00:48:58.144Z,26.25
2023-02-14T00:49:58.239Z,26.27
2023-02-14T00:50:58.665Z,26.27
2023-02-14T00:51:58.408Z,26.25
2023-02-14T00:52:58.500Z,26.25
2023-02-14T00:53:58.587Z,26.25
2023-02-14T00:54:58.684Z,26.27
2023-02-14T00:55:58.766Z,26.30
2023-02-14T00:56:58.859Z,26.27
2023-02-14T00:57:58.929Z,26.28
2023-02-14T00:58:59.004Z,26.25
2023-02-14T00:59:59.084Z,26.27
2023-02-14T01:00:59.481Z,26.28
2023-02-14T01:01:59.251Z,26.25
2023-02-14T01:02:59.307Z,26.25
2023-02-14T01:03:59.401Z,26.24
2023-02-14T01:04:59.503Z,26.24
2023-02-14T01:05:59.596Z,26.24
2023-02-14T01:06:59.703Z,26.24
2023-02-14T01:07:59.773Z,26.21
2023-02-14T01:08:59.861Z,26.22
2023-02-14T01:09:59.945Z,26.23
2023-02-14T01:11:00.502Z,26.23
2023-02-14T01:12:00.197Z,26.21
2023-02-14T01:13:00.221Z,26.21
2023-02-14T01:14:00.323Z,26.24
2023-02-14T01:15:00.429Z,26.20
2023-02-14T01:16:00.495Z,26.23
2023-02-14T01:17:00.614Z,26.20
2023-02-14T01:18:00.702Z,26.21
2023-02-14T01:19:00.778Z,26.19
2023-02-14T01:20:00.862Z,26.14
2023-02-14T01:21:01.317Z,26.22
2023-02-14T01:22:01.030Z,26.19
2023-02-14T01:23:01.119Z,26.17
2023-02-14T01:24:01.205Z,26.20
2023-02-14T01:25:01.297Z,26.17
2023-02-14T01:26:01.390Z,26.20
2023-02-14T01:27:01.468Z,26.20
2023-02-14T01:28:01.559Z,26.19
2023-02-14T01:29:01.637Z,26.16
2023-02-14T01:30:01.731Z,26.17
2023-02-14T02:12:05.218Z,26.07
2023-02-14T02:49:08.348Z,25.95
2023-02-14T02:50:08.419Z,25.96
2023-02-14T02:51:08.494Z,25.95
2023-02-14T02:52:08.590Z,25.92
2023-02-14T02:53:08.662Z,25.99
2023-02-14T02:54:08.745Z,25.95
2023-02-14T02:55:08.821Z,25.93
2023-02-14T02:56:08.884Z,26.00
2023-02-14T02:57:08.927Z,25.95
2023-02-14T02:58:08.986Z,25.95
2023-02-14T02:59:09.054Z,25.96
2023-02-14T03:00:09.082Z,26.01
2023-02-14T03:01:09.166Z,25.96
2023-02-14T03:02:09.191Z,25.94
2023-02-14T03:03:09.238Z,25.93
2023-02-14T03:04:09.287Z,25.94
2023-02-14T04:22:15.187Z,25.85
2023-02-14T04:23:15.269Z,25.85
2023-02-14T04:24:15.362Z,25.87
2023-02-14T04:25:15.445Z,25.87
2023-02-14T04:26:15.525Z,25.85
2023-02-14T04:27:15.619Z,25.85
2023-02-14T04:28:15.702Z,25.84
2023-02-14T04:29:15.790Z,25.87
2023-02-14T04:30:15.946Z,25.82
2023-02-14T04:31:16.099Z,25.84
2023-02-14T04:32:16.157Z,25.82
2023-02-14T04:33:16.146Z,25.85
2023-02-14T04:34:16.235Z,25.85
2023-02-14T04:35:16.328Z,25.82
2023-02-14T04:36:16.426Z,25.85
2023-02-14T04:37:16.507Z,25.82
2023-02-14T04:38:16.595Z,25.81
2023-02-14T04:39:16.688Z,25.82
2023-02-14T04:40:16.797Z,25.89
2023-02-14T04:41:16.862Z,25.84
2023-02-14T04:42:16.959Z,25.85
2023-02-14T04:43:17.040Z,25.85
2023-02-14T04:44:17.104Z,25.84
2023-02-14T04:45:17.198Z,25.84
2023-02-14T04:46:17.323Z,25.84
2023-02-14T04:47:17.369Z,25.87
2023-02-14T04:48:17.469Z,25.82
2023-02-14T04:49:17.567Z,25.81
2023-02-14T04:50:17.646Z,25.81
2023-02-14T04:51:17.730Z,25.85
2023-02-14T04:52:17.796Z,25.84
2023-02-14T04:53:17.864Z,25.84
2023-02-14T04:54:17.923Z,25.81
2023-02-14T04:55:17.973Z,25.80
2023-02-14T04:56:18.039Z,25.81
2023-02-14T04:57:18.125Z,25.81
2023-02-14T04:58:18.209Z,25.81
2023-02-14T04:59:18.295Z,25.80
2023-02-14T05:00:18.371Z,25.80
2023-02-14T05:01:18.471Z,25.78
2023-02-14T05:02:18.516Z,25.80
2023-02-14T05:03:18.558Z,25.76
2023-02-14T05:04:18.657Z,25.77
2023-02-14T05:05:18.731Z,25.77
2023-02-14T05:06:18.816Z,25.78
2023-02-14T05:36:21.138Z,25.71
2023-02-14T05:37:21.216Z,25.74
2023-02-14T05:38:21.300Z,25.74
2023-02-14T05:39:21.395Z,25.70
2023-02-14T05:40:21.490Z,25.73
2023-02-14T05:41:21.601Z,25.67
2023-02-14T05:42:21.666Z,25.70
2023-02-14T05:43:21.742Z,25.70
2023-02-14T05:44:21.815Z,25.73
2023-02-14T05:45:21.895Z,25.67
2023-02-14T05:46:22.072Z,25.62
2023-02-14T05:47:22.070Z,25.67
2023-02-14T06:51:27.266Z,25.53
2023-02-14T06:52:27.357Z,25.58
2023-02-14T06:53:27.800Z,25.52
2023-02-14T06:54:27.512Z,25.51
2023-02-14T06:55:27.614Z,25.54
2023-02-14T06:56:27.690Z,25.52
2023-02-14T06:57:27.786Z,25.54
2023-02-14T06:58:27.867Z,25.53
2023-02-14T06:59:27.958Z,25.55
2023-02-14T07:00:28.050Z,25.48
2023-02-14T07:01:28.231Z,25.49
2023-02-14T07:02:28.273Z,25.53
2023-02-14T07:03:28.308Z,25.49
2023-02-14T07:04:28.397Z,25.49
2023-02-14T07:05:28.489Z,25.47
2023-02-14T07:06:28.573Z,25.51
2023-02-14T07:07:28.644Z,25.45
2023-02-14T07:08:28.748Z,25.45
2023-02-14T07:09:28.809Z,25.51
2023-02-14T07:10:28.887Z,25.52
2023-02-14T07:11:28.961Z,25.51
2023-02-14T07:12:29.048Z,25.52
2023-02-14T07:13:29.130Z,25.49
2023-02-14T07:14:29.224Z,25.51
2023-02-14T07:15:29.311Z,25.48
2023-02-14T07:16:29.335Z,25.53
2023-02-14T07:17:29.405Z,25.47
2023-02-14T07:18:29.480Z,25.51
2023-02-14T07:19:29.548Z,25.49
2023-02-14T07:20:29.678Z,25.48
2023-02-14T07:21:29.708Z,25.49
2023-02-14T07:22:30.504Z,25.42
2023-02-14T07:23:29.863Z,25.48
2023-02-14T07:24:29.932Z,25.49
2023-02-14T07:25:30.017Z,25.45
2023-02-14T07:26:30.105Z,25.51
2023-02-14T07:27:30.193Z,25.45
2023-02-14T07:28:30.294Z,25.49
2023-02-14T07:29:30.363Z,25.47
2023-02-14T07:30:30.606Z,25.47
2023-02-14T07:31:30.647Z,25.45
2023-02-14T07:32:30.696Z,25.48
2023-02-14T07:33:30.699Z,25.49
2023-02-14T07:34:30.777Z,25.46
2023-02-14T07:35:30.854Z,25.49
2023-02-14T07:36:30.917Z,25.48
2023-02-14T07:37:30.981Z,25.48
2023-02-14T07:38:31.026Z,25.48
2023-02-14T07:39:31.114Z,25.49
2023-02-14T07:40:31.194Z,25.55
2023-02-14T07:41:31.297Z,25.47
2023-02-14T07:42:31.389Z,25.49
2023-02-14T07:43:31.468Z,25.49
2023-02-14T07:44:31.564Z,25.45
2023-02-14T07:45:31.655Z,25.51
2023-02-14T08:52:37.278Z,25.38
2023-02-14T08:53:37.391Z,25.32
2023-02-14T08:54:37.429Z,25.36
2023-02-14T08:55:37.499Z,25.34
2023-02-14T08:56:37.583Z,25.38
2023-02-14T08:57:37.659Z,25.34
2023-02-14T08:58:37.769Z,25.41
2023-02-14T08:59:37.828Z,25.38
2023-02-14T09:00:37.949Z,25.34
2023-02-14T09:01:38.004Z,25.36
2023-02-14T09:02:38.128Z,25.32
2023-02-14T09:03:38.635Z,25.36
2023-02-14T09:04:38.280Z,25.29
2023-02-14T09:05:38.334Z,25.32
2023-02-14T09:06:38.415Z,25.36
2023-02-14T09:07:38.495Z,25.33
2023-02-14T09:08:38.614Z,25.32
2023-02-14T09:09:38.672Z,25.32
2023-02-14T09:10:38.780Z,25.30
2023-02-14T09:11:38.860Z,25.33
2023-02-14T09:12:38.931Z,25.37
2023-02-14T09:13:39.051Z,25.33
2023-02-14T09:14:39.105Z,25.39
2023-02-14T09:15:39.282Z,25.33
2023-02-14T09:16:39.383Z,25.33
2023-02-14T09:17:39.409Z,25.37
2023-02-14T09:18:39.454Z,25.35
2023-02-14T09:19:39.536Z,25.30
2023-02-14T09:20:39.634Z,25.35
2023-02-14T09:21:39.722Z,25.30
2023-02-14T09:22:39.902Z,25.35
2023-02-14T09:23:39.935Z,25.34
2023-02-14T09:24:39.978Z,25.35
2023-02-14T09:25:40.071Z,25.35
2023-02-14T09:26:40.155Z,25.33
2023-02-14T09:27:40.240Z,25.33
2023-02-14T09:28:40.340Z,25.33
2023-02-14T09:29:40.432Z,25.29
2023-02-14T09:30:40.505Z,25.35
2023-02-14T09:31:40.646Z,25.32
2023-02-14T09:32:40.685Z,25.33
2023-02-14T09:33:40.768Z,25.36
2023-02-14T09:34:40.867Z,25.27
2023-02-14T09:35:40.954Z,25.29
2023-02-14T09:36:41.060Z,25.27
2023-02-14T09:37:41.125Z,25.31
2023-02-14T09:38:41.215Z,25.27
2023-02-14T09:39:41.284Z,25.28
2023-02-14T09:40:41.381Z,25.27
2023-02-14T09:41:41.462Z,25.29
2023-02-14T09:42:41.554Z,25.25
2023-02-14T09:43:41.615Z,25.25
2023-02-14T09:44:41.699Z,25.25
2023-02-14T09:45:41.788Z,25.25
2023-02-14T09:46:41.869Z,25.24
2023-02-14T09:47:41.946Z,25.24
2023-02-14T09:48:42.026Z,25.27
2023-02-14T09:49:42.257Z,25.25
2023-02-14T09:50:42.190Z,25.24
2023-02-14T09:51:42.263Z,25.22
2023-02-14T09:52:42.335Z,25.21
2023-02-14T09:53:42.417Z,25.19
2023-02-14T09:54:42.495Z,25.22
2023-02-14T09:55:42.555Z,25.19
2023-02-14T09:56:51.424Z,25.17
2023-02-14T09:57:43.647Z,25.15
2023-02-14T09:58:42.676Z,25.12
2023-02-14T09:59:42.697Z,25.16
2023-02-14T10:00:42.727Z,25.11
2023-02-14T10:01:42.735Z,25.15
2023-02-14T10:02:42.747Z,25.11
2023-02-14T10:03:42.771Z,25.12
2023-02-14T10:04:42.790Z,25.09
2023-02-14T10:05:42.811Z,25.07
2023-02-14T10:06:42.870Z,25.06
2023-02-14T10:07:42.949Z,25.06
2023-02-14T10:08:43.038Z,25.10
2023-02-14T10:09:43.090Z,25.07
2023-02-14T10:10:43.167Z,25.06
2023-02-14T10:11:43.221Z,25.03
2023-02-14T10:12:43.301Z,25.04
2023-02-14T10:13:43.358Z,25.02
2023-02-14T10:14:43.433Z,25.01
2023-02-14T10:15:43.503Z,25.05
2023-02-14T10:16:43.626Z,25.01
2023-02-14T10:17:43.633Z,24.98
2023-02-14T10:18:43.730Z,24.95
2023-02-14T10:19:43.771Z,24.95
2023-02-14T10:20:43.831Z,24.97
2023-02-14T10:21:43.913Z,24.97
2023-02-14T10:22:43.977Z,25.01
2023-02-14T10:23:44.033Z,24.96
2023-02-14T10:24:44.098Z,24.96
2023-02-14T10:25:44.159Z,24.96
2023-02-14T10:26:44.236Z,24.96
2023-02-14T10:27:44.290Z,24.99
2023-02-14T10:28:44.361Z,24.93
2023-02-14T10:29:44.431Z,24.93
2023-02-14T10:30:44.560Z,24.90
2023-02-14T10:31:44.719Z,24.87
2023-02-14T10:32:44.643Z,24.89
2023-02-14T10:33:44.710Z,24.91
2023-02-14T10:34:44.776Z,24.89
2023-02-14T10:35:44.839Z,24.91
2023-02-14T10:36:44.910Z,24.88
2023-02-14T10:37:44.995Z,24.92
2023-02-14T10:38:45.044Z,24.87
2023-02-14T10:39:45.098Z,24.88
2023-02-14T10:40:45.154Z,24.89
2023-02-14T10:41:45.218Z,24.87
2023-02-14T10:42:45.306Z,24.83
2023-02-14T10:43:45.355Z,24.88
2023-02-14T10:44:45.411Z,24.84
2023-02-14T10:45:45.567Z,24.84
2023-02-14T10:46:45.541Z,24.88
2023-02-14T10:47:45.695Z,24.88
2023-02-14T10:48:45.677Z,24.82
2023-02-14T10:49:45.728Z,24.87
2023-02-14T10:50:45.792Z,24.83
2023-02-14T10:51:45.869Z,24.86
2023-02-14T10:52:45.912Z,24.84
2023-02-14T10:53:45.973Z,24.86
2023-02-14T10:54:46.036Z,24.87
2023-02-14T10:55:46.108Z,24.83
2023-02-14T10:56:46.180Z,24.83
2023-02-14T10:57:46.220Z,24.87
2023-02-14T10:58:46.285Z,24.83
2023-02-14T10:59:46.357Z,24.84
2023-02-14T11:00:46.410Z,24.79
2023-02-14T11:01:46.551Z,24.82
2023-02-14T11:02:46.539Z,24.82
2023-02-14T11:03:46.755Z,24.84
2023-02-14T11:04:46.669Z,24.86
2023-02-14T11:05:46.992Z,24.84
2023-02-14T11:06:46.816Z,24.83
2023-02-14T11:07:46.847Z,24.80
2023-02-14T11:08:46.921Z,24.80
2023-02-14T11:09:46.974Z,24.84
2023-02-14T11:10:47.022Z,24.83
2023-02-14T11:11:47.091Z,24.84
2023-02-14T11:12:47.157Z,24.82
2023-02-14T11:13:47.227Z,24.83
2023-02-14T11:14:47.280Z,24.84
2023-02-14T11:15:47.334Z,24.84
2023-02-14T11:16:47.433Z,24.85
2023-02-14T11:17:47.459Z,24.82
2023-02-14T11:18:47.529Z,24.85
2023-02-14T11:19:47.581Z,24.85
2023-02-14T11:20:47.651Z,24.86
2023-02-14T11:21:47.697Z,24.87
2023-02-14T11:22:47.774Z,24.85
2023-02-14T11:23:47.839Z,24.86
2023-02-14T11:24:47.896Z,24.87
2023-02-14T11:25:47.952Z,24.86
2023-02-14T11:26:48.013Z,24.87
2023-02-14T11:27:48.066Z,24.90
2023-02-14T11:28:48.145Z,24.86
2023-02-14T11:29:48.332Z,24.87
2023-02-14T11:30:48.322Z,24.86
2023-02-14T11:31:48.445Z,24.86
2023-02-14T11:32:48.371Z,24.84
2023-02-14T11:33:48.433Z,24.90
2023-02-14T11:34:48.486Z,24.90
2023-02-14T11:35:48.557Z,24.90
2023-02-14T11:36:48.626Z,24.90
2023-02-14T11:37:48.679Z,24.91
2023-02-14T11:38:48.739Z,24.91
2023-02-14T11:39:48.808Z,24.90
2023-02-14T11:40:48.854Z,24.91
2023-02-14T11:41:48.932Z,24.92
2023-02-14T11:42:51.621Z,24.95
2023-02-14T11:43:50.005Z,24.88
2023-02-14T11:44:49.007Z,24.92
2023-02-14T11:45:49.064Z,24.90
2023-02-14T11:46:53.340Z,24.95
2023-02-14T11:47:49.057Z,24.97
2023-02-14T11:48:49.073Z,24.94
2023-02-14T11:49:49.088Z,24.95
2023-02-14T12:20:50.495Z,24.99
2023-02-14T12:21:50.574Z,24.96
2023-02-14T12:22:50.633Z,25.02
2023-02-14T12:23:50.711Z,25.02
2023-02-14T12:24:50.766Z,25.02
2023-02-14T12:25:50.840Z,24.98
2023-02-14T12:26:50.889Z,24.99
2023-02-14T12:27:50.952Z,24.96
2023-02-14T12:28:51.032Z,24.98
2023-02-14T12:29:51.144Z,24.98
2023-02-14T12:30:51.279Z,25.03
2023-02-14T12:31:51.336Z,25.02
2023-02-14T12:32:51.316Z,25.04
2023-02-14T12:33:51.366Z,25.03
2023-02-14T12:34:51.435Z,25.00
2023-02-14T12:35:51.495Z,24.99
2023-02-14T12:36:51.553Z,24.99
2023-02-14T12:38:02.718Z,25.02
2023-02-14T12:38:52.632Z,24.99
2023-02-14T12:39:51.693Z,25.00
2023-02-14T12:40:51.676Z,24.99
2023-02-14T12:41:51.691Z,25.00
2023-02-14T12:42:51.730Z,24.99
2023-02-14T12:43:51.718Z,25.00
2023-02-14T12:44:51.749Z,24.97
2023-02-14T12:45:51.757Z,24.96
2023-02-14T12:46:51.774Z,24.97
2023-02-14T12:47:51.777Z,24.93
2023-02-14T12:48:51.796Z,25.00
2023-02-14T12:49:51.813Z,25.01
2023-02-14T12:50:51.898Z,24.99
2023-02-14T12:51:51.886Z,24.95
2023-02-14T12:52:51.952Z,24.96
2023-02-14T12:53:52.010Z,24.96
2023-02-14T12:54:52.072Z,25.03
2023-02-14T12:55:52.129Z,24.97
2023-02-14T12:56:52.189Z,24.99
2023-02-14T12:57:52.236Z,25.02
2023-02-14T12:58:52.316Z,24.97
2023-02-14T12:59:52.364Z,25.00
2023-02-14T13:00:52.413Z,25.01
2023-02-14T13:01:52.497Z,25.00
2023-02-14T13:02:52.584Z,25.03
2023-02-14T13:03:52.590Z,25.04
2023-02-14T13:04:52.647Z,24.99
2023-02-14T13:05:52.724Z,25.01
2023-02-14T13:06:52.787Z,25.04
2023-02-14T13:07:52.854Z,25.04
2023-02-14T13:08:52.928Z,25.04
2023-02-14T13:09:52.990Z,25.03
2023-02-14T13:10:53.044Z,25.04
2023-02-14T13:11:53.133Z,25.01
2023-02-14T13:12:53.167Z,25.03
2023-02-14T13:13:53.219Z,25.01
2023-02-14T13:14:53.289Z,25.05
2023-02-14T13:15:53.394Z,25.07
2023-02-14T13:16:53.428Z,25.04
2023-02-14T13:17:53.475Z,25.08
2023-02-14T13:18:53.545Z,25.10
2023-02-14T13:19:53.617Z,25.10
2023-02-14T13:20:53.708Z,25.11
2023-02-14T13:21:53.748Z,25.09
2023-02-14T13:22:53.813Z,25.14
2023-02-14T13:23:53.887Z,25.11
2023-02-14T13:24:53.942Z,25.11
2023-02-14T13:25:54.015Z,25.12
2023-02-14T13:26:54.093Z,25.14
2023-02-14T13:27:54.163Z,25.14
2023-02-14T13:28:54.246Z,25.16
2023-02-14T13:29:54.393Z,25.16
2023-02-14T13:30:54.433Z,25.09
2023-02-14T13:31:54.484Z,25.14
2023-02-14T13:32:54.539Z,25.15
2023-02-14T13:33:54.586Z,25.16
2023-02-14T13:34:54.644Z,25.16
2023-02-14T13:35:54.716Z,25.19
2023-02-14T13:36:54.789Z,25.19
2023-02-14T13:37:54.854Z,25.13
2023-02-14T13:39:55.004Z,25.20
2023-02-14T13:40:55.079Z,25.16
2023-02-14T13:41:55.128Z,25.19
2023-02-14T13:42:55.196Z,25.16
2023-02-14T13:43:55.261Z,25.18
2023-02-14T13:44:55.329Z,25.16
2023-02-14T13:45:55.407Z,25.23
2023-02-14T13:46:55.501Z,25.18
2023-02-14T13:47:55.561Z,25.16
2023-02-14T13:48:55.621Z,25.23
2023-02-14T13:49:55.699Z,25.20
2023-02-14T14:12:57.285Z,25.30
2023-02-14T14:13:57.353Z,25.27
2023-02-14T14:14:57.416Z,25.26
2023-02-14T14:15:57.551Z,25.27
2023-02-14T14:16:57.547Z,25.25
2023-02-14T14:17:57.612Z,25.27
2023-02-14T14:18:57.688Z,25.31
2023-02-14T14:19:57.747Z,25.27
2023-02-14T14:20:57.813Z,25.28
2023-02-14T14:21:57.890Z,25.26
2023-02-14T14:22:57.952Z,25.31
2023-02-14T14:23:58.026Z,25.29
2023-02-14T14:24:58.090Z,25.30
2023-02-14T14:25:58.429Z,25.27
2023-02-14T14:26:58.233Z,25.25
2023-02-14T14:27:58.315Z,25.31
2023-02-14T14:28:58.366Z,25.31
2023-02-14T14:29:58.489Z,25.31
2023-02-14T14:30:58.518Z,25.32
2023-02-14T14:31:58.646Z,25.29
2023-02-14T14:32:58.663Z,25.32
2023-02-14T14:33:58.712Z,25.35
2023-02-14T14:34:58.785Z,25.28
2023-02-14T14:35:59.158Z,25.27
2023-02-14T14:36:58.915Z,25.30
2023-02-14T14:37:58.995Z,25.24
2023-02-14T14:38:59.063Z,25.32
2023-02-14T14:39:59.119Z,25.32
2023-02-14T14:40:59.184Z,25.29
2023-02-14T14:41:59.261Z,25.28
2023-02-14T14:42:59.324Z,25.31
2023-02-14T14:43:59.414Z,25.31
2023-02-14T14:44:59.475Z,25.31
2023-02-14T14:45:59.991Z,25.28
2023-02-14T14:46:59.625Z,25.29
2023-02-14T14:47:59.683Z,25.31
2023-02-14T14:53:01.991Z,25.28
2023-02-14T15:31:01.117Z,25.34
2023-02-14T17:05:07.271Z,25.47
2023-02-14T17:06:07.358Z,25.48
2023-02-14T17:07:07.427Z,25.48
2023-02-14T17:08:07.503Z,25.50
2023-02-14T17:09:07.596Z,25.50
2023-02-14T17:10:07.674Z,25.49
2023-02-14T17:11:07.750Z,25.49
2023-02-14T17:12:08.473Z,25.48
2023-02-14T17:13:07.911Z,25.48
2023-02-14T17:14:08.002Z,25.50
2023-02-14T17:15:08.057Z,25.48
2023-02-14T17:16:08.205Z,25.54
2023-02-14T17:17:08.210Z,25.52
2023-02-14T17:18:08.288Z,25.51
2023-02-14T17:19:08.362Z,25.48
2023-02-14T17:20:08.459Z,25.48
2023-02-14T17:21:08.520Z,25.51
2023-02-14T17:22:08.614Z,25.47
2023-02-14T17:23:08.676Z,25.51
2023-02-14T17:24:08.756Z,25.47
2023-02-14T17:25:08.846Z,25.51
2023-02-14T17:26:08.922Z,25.55
2023-02-14T17:27:08.989Z,25.48
2023-02-14T17:28:09.065Z,25.49
2023-02-14T17:29:09.147Z,25.48
2023-02-14T17:30:09.287Z,25.52
2023-02-14T17:31:09.401Z,25.51
2023-02-14T17:32:09.517Z,25.48
2023-02-14T17:33:09.462Z,25.52
2023-02-14T17:34:09.535Z,25.55
2023-02-14T17:35:09.603Z,25.52
2023-02-14T17:36:11.882Z,25.53
2023-02-14T17:37:09.775Z,25.49
2023-02-14T17:38:09.843Z,25.51
2023-02-14T17:39:09.945Z,25.51
2023-02-14T17:40:10.070Z,25.52
2023-02-14T17:41:10.079Z,25.51
2023-02-14T17:42:12.045Z,25.48
2023-02-14T17:43:10.233Z,25.56
2023-02-14T17:44:10.308Z,25.49
2023-02-14T17:45:10.382Z,25.52
2023-02-14T17:46:10.530Z,25.55
2023-02-14T17:47:10.543Z,25.52
2023-02-14T17:48:11.825Z,25.55
2023-02-14T17:49:10.694Z,25.52
2023-02-14T17:50:10.773Z,25.51
2023-02-14T17:51:10.848Z,25.53
2023-02-14T17:52:10.935Z,25.56
2023-02-14T17:53:11.013Z,25.59
2023-02-14T17:54:11.084Z,25.59
2023-02-14T17:55:11.177Z,25.53
2023-02-14T17:56:11.303Z,25.55
2023-02-14T17:57:11.329Z,25.55
2023-02-14T17:58:11.421Z,25.55
2023-02-14T17:59:11.516Z,25.58
2023-02-14T18:00:12.105Z,25.56
2023-02-14T18:01:11.633Z,25.56
2023-02-14T18:02:11.726Z,25.58
2023-02-14T18:03:11.790Z,25.55
2023-02-14T18:04:11.866Z,25.58
2023-02-14T18:05:11.951Z,25.56
2023-02-14T18:06:12.047Z,25.58
2023-02-14T18:07:12.985Z,25.59
2023-02-14T18:08:12.153Z,25.62
2023-02-14T18:09:12.223Z,25.60
2023-02-14T18:10:12.299Z,25.56
2023-02-14T18:11:12.380Z,25.57
2023-02-14T18:12:15.058Z,25.52
2023-02-14T18:13:12.467Z,25.59
2023-02-14T18:14:12.481Z,25.56
2023-02-14T18:15:12.501Z,25.59
2023-02-14T18:16:12.568Z,25.60
2023-02-14T18:17:12.545Z,25.59
2023-02-14T18:18:12.559Z,25.59
2023-02-14T18:19:12.567Z,25.57
2023-02-14T18:20:12.589Z,25.64
2023-02-14T18:21:12.608Z,25.59
2023-02-14T18:22:12.619Z,25.63
2023-02-14T18:23:12.633Z,25.63
2023-02-14T18:24:12.647Z,25.60
2023-02-14T18:25:12.665Z,25.59
2023-02-14T18:26:12.694Z,25.59
2023-02-14T18:27:12.701Z,25.61
2023-02-14T18:28:12.715Z,25.61
2023-02-14T18:29:12.743Z,25.63
2023-02-14T18:30:12.792Z,25.61
2023-02-14T18:31:12.850Z,25.65
2023-02-14T18:32:12.816Z,25.63
2023-02-14T18:33:12.799Z,25.61
2023-02-14T18:34:12.842Z,25.61
2023-02-14T18:35:12.841Z,25.64
2023-02-14T18:36:12.868Z,25.61
2023-02-14T18:37:12.885Z,25.61
2023-02-14T18:38:12.892Z,25.61
2023-02-14T18:39:12.937Z,25.61
2023-02-14T18:40:12.923Z,25.61
2023-02-14T18:41:12.928Z,25.67
2023-02-14T18:42:12.941Z,25.60
2023-02-14T18:43:12.953Z,25.61
2023-02-14T18:44:12.962Z,25.64
2023-02-14T18:45:12.971Z,25.60
2023-02-14T18:46:12.995Z,25.63
2023-02-14T18:47:13.015Z,25.65
2023-02-14T18:48:13.044Z,25.65
2023-02-14T18:49:13.060Z,25.65
2023-02-14T18:50:13.077Z,25.63
2023-02-14T18:51:13.099Z,25.63
2023-02-14T18:52:13.161Z,25.63
2023-02-14T18:53:13.249Z,25.67
2023-02-14T18:54:13.314Z,25.71
2023-02-14T18:55:13.398Z,25.64
2023-02-14T18:56:13.485Z,25.69
2023-02-14T18:57:13.564Z,25.69
2023-02-14T18:58:13.647Z,25.69
2023-02-14T18:59:13.738Z,25.66
2023-02-14T19:00:13.828Z,25.63
2023-02-14T19:01:13.990Z,25.64
2023-02-14T19:02:14.108Z,25.65
2023-02-14T19:03:14.079Z,25.72
2023-02-14T19:04:14.164Z,25.63
2023-02-14T19:05:14.226Z,25.64
2023-02-14T19:06:14.282Z,25.71
2023-02-14T19:07:14.339Z,25.67
2023-02-14T19:08:14.420Z,25.64
2023-02-14T19:09:14.480Z,25.64
2023-02-14T19:10:14.534Z,25.67
2023-02-14T19:11:14.590Z,25.68
2023-02-14T19:12:14.653Z,25.69
2023-02-14T19:13:14.727Z,25.69
2023-02-14T19:14:14.779Z,25.69
2023-02-14T19:15:14.860Z,25.68
2023-02-14T19:16:14.963Z,25.69
2023-02-14T19:17:14.965Z,25.67
2023-02-14T19:18:15.039Z,25.68
2023-02-14T19:19:15.102Z,25.71
2023-02-14T19:20:15.175Z,25.68
2023-02-14T19:21:15.232Z,25.67
2023-02-14T19:22:15.306Z,25.68
2023-02-14T19:23:15.365Z,25.65
2023-02-14T19:24:15.442Z,25.69
2023-02-14T19:25:15.521Z,25.68
2023-02-14T19:26:15.566Z,25.67
2023-02-14T19:27:15.638Z,25.68
2023-02-14T19:28:15.718Z,25.68
2023-02-14T19:29:15.815Z,25.69
2023-02-14T19:30:15.890Z,25.72
2023-02-14T19:31:16.003Z,25.68
2023-02-14T19:32:16.091Z,25.69
2023-02-14T19:33:16.124Z,25.67
2023-02-14T19:34:16.181Z,25.68
2023-02-14T19:35:16.265Z,25.65
2023-02-14T19:36:16.347Z,25.71
2023-02-14T19:37:16.431Z,25.67
2023-02-14T19:38:16.500Z,25.72
2023-02-14T19:39:16.584Z,25.69
2023-02-14T19:40:16.672Z,25.69
2023-02-14T19:41:16.756Z,25.66
2023-02-14T19:42:16.843Z,25.67
2023-02-14T19:43:16.920Z,25.68
2023-02-14T19:44:17.013Z,25.69
2023-02-14T19:45:17.061Z,25.69
2023-02-14T19:46:17.171Z,25.75
2023-02-14T19:47:29.015Z,25.74
2023-02-14T19:48:18.214Z,25.72
2023-02-14T19:49:17.239Z,25.72
2023-02-14T19:50:17.255Z,25.75
2023-02-14T19:51:17.276Z,25.70
2023-02-14T19:52:25.690Z,25.75
2023-02-14T19:53:18.306Z,25.70
2023-02-14T19:54:17.332Z,25.70
2023-02-14T19:55:17.348Z,25.72
2023-02-14T19:56:17.358Z,25.76
2023-02-14T19:57:17.390Z,25.76
2023-02-14T19:58:17.390Z,25.73
2023-02-14T19:59:17.426Z,25.73
2023-02-14T20:00:18.069Z,25.73
2023-02-14T20:01:17.532Z,25.72
2023-02-14T20:02:17.668Z,25.68
2023-02-14T20:03:17.678Z,25.72
2023-02-14T20:04:17.774Z,25.75
2023-02-14T20:05:17.868Z,25.75
2023-02-14T20:06:17.963Z,25.72
2023-02-14T20:07:18.034Z,25.70
2023-02-14T20:08:18.140Z,25.72
2023-02-14T20:09:18.196Z,25.72
2023-02-14T20:10:18.284Z,25.75
2023-02-14T20:11:18.376Z,25.76
2023-02-14T20:12:18.462Z,25.76
2023-02-14T20:13:18.548Z,25.76
2023-02-14T20:14:18.653Z,25.75
2023-02-14T20:15:18.755Z,25.74
2023-02-14T20:16:18.847Z,25.76
2023-02-14T20:17:18.877Z,25.76
2023-02-14T20:18:18.984Z,25.77
2023-02-14T20:19:19.122Z,25.75
2023-02-14T20:20:19.173Z,25.76
2023-02-14T20:21:19.199Z,25.75
2023-02-14T20:22:19.269Z,25.80
2023-02-14T20:23:19.358Z,25.77
2023-02-14T20:24:19.453Z,25.70
2023-02-14T20:25:19.555Z,25.75
2023-02-14T20:26:19.614Z,25.76
2023-02-14T20:27:19.699Z,25.74
2023-02-14T20:28:19.798Z,25.75
2023-02-14T20:29:19.901Z,25.76
2023-02-14T20:30:20.031Z,25.74
2023-02-14T20:31:20.196Z,25.77
2023-02-14T20:32:20.166Z,25.76
2023-02-14T20:33:20.268Z,25.81
2023-02-14T20:34:20.347Z,25.74
2023-02-14T20:35:20.444Z,25.76
2023-02-14T20:36:20.545Z,25.73
2023-02-14T20:37:20.623Z,25.79
2023-02-14T20:38:20.706Z,25.74
2023-02-14T20:39:20.876Z,25.77
2023-02-14T20:40:20.881Z,25.76
2023-02-14T20:41:20.928Z,25.73
2023-02-14T20:42:21.070Z,25.74
2023-02-14T20:43:21.087Z,25.73
2023-02-14T20:44:21.240Z,25.74
2023-02-14T20:45:21.264Z,25.74
2023-02-14T20:46:21.439Z,25.74
2023-02-14T20:47:21.499Z,25.74
2023-02-14T20:48:21.567Z,25.81
2023-02-14T20:49:21.611Z,25.80
2023-02-14T20:50:21.715Z,25.79
2023-02-14T20:51:21.781Z,25.73
2023-02-14T20:52:21.946Z,25.73
2023-02-14T20:53:22.029Z,25.81
2023-02-14T20:54:22.040Z,25.80
2023-02-14T20:55:22.123Z,25.76
2023-02-14T20:56:22.308Z,25.77
2023-02-14T20:57:22.375Z,25.77
2023-02-14T20:58:22.392Z,25.77
2023-02-14T20:59:22.455Z,25.77
2023-02-14T21:00:22.533Z,25.76
2023-02-14T21:01:22.694Z,25.77
2023-02-14T21:02:22.677Z,25.76
2023-02-14T21:03:22.783Z,25.76
2023-02-14T21:04:22.821Z,25.81
2023-02-14T21:05:22.881Z,25.76
2023-02-14T21:06:22.942Z,25.74
2023-02-14T21:07:23.030Z,25.79
2023-02-14T21:08:23.046Z,25.74
2023-02-14T21:09:23.134Z,25.77
2023-02-14T21:10:23.199Z,25.79
2023-02-14T21:11:23.259Z,25.79
2023-02-14T21:12:23.379Z,25.79
2023-02-14T21:13:23.423Z,25.78